Amherst, Colorado
Current Conditions -  °F | °C
As of 5:55 PM on Monday 26 Jan 2015 (Local Time) from KHEQ Reporting Station
Clear Clear  
Wind Chill: 39°   Ceiling: Unl
Heat Index: 43°   Visibility: 10mi
Dew Point: 30°   Wind: 6mph
Humidity: 61%   Direction: 240°WSW
Pressure: 30.12"   Gusts: NA
Location:  40.68°N, 102.17°W
Report Text: KHEQ 270055Z AUTO 24005KT 10SM CLR 06/M01 A3012 RMK AO2
Loading
Personal Weather Stations






























Interactive Weather Map New forecast layout! Learn more

10-Day Weather Forecast

Advertisements
Track Severe Weather on mobile